Time;durP1;ratioP1;P1;durP2;ratioP2;P2;SDS_P1;SDS_P2;PMS_P1;PMS_P2;Temp;Humidity;BMP_temperature;BMP_pressure;BME280_temperature;BME280_humidity;BME280_pressure;Samples;Min_cycle;Max_cycle;Signal;HPM_P1;HPM_P2
2021/05/06 00:32:04;;;;;;;0.57;0.40;;;;;;;24.63;17.58;97420.94;5070175;28;20042;-88
2021/05/06 00:34:31;;;;;;;0.50;0.30;;;;;;;23.59;18.35;97427.50;5074756;28;20144;-88
2021/05/06 00:36:57;;;;;;;0.50;0.30;;;;;;;23.38;18.78;97427.34;5057093;28;20036;-88
2021/05/06 00:39:39;;;;;;;0.20;0.20;;;;;;;23.22;18.59;97426.13;5071951;28;20036;-88
2021/05/06 00:42:17;;;;;;;0.30;0.30;;;;;;;23.49;18.57;97434.19;5074245;28;20111;-88
2021/05/06 00:45:19;;;;;;;0.38;0.38;;;;;;;23.78;18.37;97432.09;5074242;28;20496;-88
2021/05/06 01:01:37;;;;;;;0.63;0.35;;;;;;;23.52;18.21;97457.75;5073769;28;20061;-88
2021/05/06 01:06:35;;;;;;;1.25;0.38;;;;;;;23.78;17.99;97460.13;5073271;28;20048;-88
2021/05/06 01:09:07;;;;;;;0.40;0.40;;;;;;;23.27;18.62;97459.22;5074321;28;20048;-88
2021/05/06 01:14:04;;;;;;;0.30;0.30;;;;;;;21.86;20.11;97471.22;5060079;28;20383;-87
2021/05/06 01:16:30;;;;;;;0.35;0.35;;;;;;;22.16;19.75;97464.53;5073897;28;20046;-88
2021/05/06 01:18:56;;;;;;;0.20;0.20;;;;;;;22.08;19.91;97467.94;5066548;28;20051;-88
2021/05/06 01:21:22;;;;;;;1.02;0.40;;;;;;;22.23;19.52;97471.94;5073142;28;20029;-88
2021/05/06 01:23:50;;;;;;;0.80;0.30;;;;;;;21.51;20.33;97471.19;5064491;28;20443;-88
2021/05/06 01:26:22;;;;;;;0.98;0.40;;;;;;;21.55;20.25;97463.50;5070743;28;20139;-88
2021/05/06 01:28:54;;;;;;;0.45;0.40;;;;;;;20.71;21.37;97465.94;5067946;28;20044;-88
2021/05/06 01:31:24;;;;;;;0.57;0.40;;;;;;;20.40;21.62;97463.28;5061538;28;20025;-88
2021/05/06 01:34:04;;;;;;;0.22;0.22;;;;;;;20.91;21.22;97467.53;5067543;28;20037;-88
2021/05/06 01:36:35;;;;;;;0.32;0.30;;;;;;;20.20;22.16;97461.63;5058807;28;20111;-88
2021/05/06 01:39:33;;;;;;;0.35;0.30;;;;;;;21.12;20.91;97463.59;5071934;28;20041;-88
2021/05/06 01:49:56;;;;;;;0.60;0.30;;;;;;;21.43;20.74;97464.16;5054365;28;20053;-88
2021/05/06 02:00:24;;;;;;;2.65;0.40;;;;;;;23.12;18.64;97474.84;5070073;28;20044;-88
2021/05/06 02:02:50;;;;;;;0.85;0.30;;;;;;;23.55;17.94;97477.25;5060513;28;20501;-89
2021/05/06 02:05:17;;;;;;;1.98;0.40;;;;;;;23.51;17.92;97482.16;5067039;28;20051;-88
2021/05/06 02:07:46;;;;;;;0.40;0.40;;;;;;;23.19;18.23;97474.66;5070454;28;20382;-88
2021/05/06 02:10:16;;;;;;;0.63;0.38;;;;;;;23.21;18.21;97480.59;5068260;28;20494;-88
2021/05/06 02:12:42;;;;;;;0.40;0.28;;;;;;;23.29;18.12;97486.81;5066875;28;20024;-88
2021/05/06 02:15:15;;;;;;;0.28;0.28;;;;;;;23.31;18.11;97484.34;5073671;28;20063;-88
2021/05/06 02:17:42;;;;;;;0.55;0.28;;;;;;;23.70;17.81;97483.22;5059847;28;20035;-88
2021/05/06 02:20:09;;;;;;;0.40;0.40;;;;;;;23.70;17.86;97483.22;5062038;28;20099;-88
2021/05/06 02:22:35;;;;;;;0.40;0.20;;;;;;;23.56;17.97;97490.03;5066736;28;20024;-88
2021/05/06 02:25:03;;;;;;;0.55;0.45;;;;;;;22.88;18.57;97495.91;5058423;28;20029;-88
2021/05/06 02:27:29;;;;;;;0.30;0.30;;;;;;;22.47;19.10;97488.16;5067632;28;20406;-88
2021/05/06 02:29:55;;;;;;;0.40;0.30;;;;;;;22.92;18.56;97485.38;5068614;28;20040;-88
2021/05/06 02:32:21;;;;;;;0.50;0.20;;;;;;;23.13;18.44;97495.22;5062238;28;20036;-88
2021/05/06 02:34:47;;;;;;;0.30;0.20;;;;;;;22.88;18.61;97486.72;5073147;28;20063;-88
2021/05/06 02:37:13;;;;;;;0.70;0.40;;;;;;;22.88;18.69;97493.09;5062408;28;20044;-88
2021/05/06 02:39:40;;;;;;;0.80;0.25;;;;;;;22.41;19.05;97483.50;5060020;28;20049;-88
2021/05/06 02:42:06;;;;;;;0.77;0.45;;;;;;;22.89;18.60;97482.69;5049946;28;20024;-88
2021/05/06 02:44:35;;;;;;;0.20;0.20;;;;;;;23.43;17.94;97497.63;5053043;28;20072;-88
2021/05/06 02:47:02;;;;;;;0.47;0.30;;;;;;;23.32;18.17;97495.09;5063984;28;20036;-88
2021/05/06 02:49:28;;;;;;;0.20;0.20;;;;;;;23.28;18.13;97490.81;5061858;28;20045;-88
2021/05/06 02:51:59;;;;;;;0.20;0.20;;;;;;;23.31;18.07;97495.53;5044235;28;20032;-88
2021/05/06 02:54:29;;;;;;;0.32;0.20;;;;;;;23.48;17.95;97490.69;5046922;28;20424;-89
2021/05/06 02:57:05;;;;;;;0.20;0.20;;;;;;;23.38;18.03;97496.13;5069127;28;20025;-88
2021/05/06 03:05:00;;;;;;;0.40;0.22;;;;;;;24.26;17.17;97498.34;5071942;28;20048;-89
2021/05/06 03:07:29;;;;;;;0.20;0.20;;;;;;;24.31;16.82;97505.41;5051413;28;20037;-88
2021/05/06 03:10:01;;;;;;;0.20;0.20;;;;;;;24.39;16.68;97504.72;5072025;28;20402;-89
2021/05/06 03:12:46;;;;;;;0.20;0.20;;;;;;;24.47;16.67;97514.47;5061918;28;20036;-88
2021/05/06 03:21:02;;;;;;;0.38;0.30;;;;;;;24.69;16.48;97515.34;5070877;28;20029;-88
2021/05/06 03:23:24;;;;;;;0.30;0.20;;;;;;;24.88;16.04;97524.75;5053345;28;20083;-89
2021/05/06 03:25:50;;;;;;;0.40;0.13;;;;;;;24.97;16.15;97533.28;5052583;28;20032;-89
2021/05/06 03:28:25;;;;;;;0.63;0.20;;;;;;;24.82;16.28;97537.03;5064585;28;20438;-89
2021/05/06 03:41:38;;;;;;;0.22;0.20;;;;;;;24.62;16.61;97562.53;5069468;28;20047;-87
2021/05/06 03:44:29;;;;;;;1.23;0.20;;;;;;;24.97;16.28;97566.22;5067950;28;20089;-85
2021/05/06 04:37:40;;;;;;;0.45;0.30;;;;;;;27.56;15.71;97629.91;5059094;28;20185;-87
2021/05/06 04:55:49;;;;;;;0.30;0.20;;;;;;;24.04;18.88;97652.44;5069411;28;20064;-87
2021/05/06 05:06:38;;;;;;;0.65;0.30;;;;;;;23.73;18.88;97667.34;5065302;28;20041;-84
2021/05/06 05:25:03;;;;;;;1.02;0.30;;;;;;;26.98;15.81;97677.78;5064626;28;20540;-84
2021/05/06 05:27:29;;;;;;;0.20;0.20;;;;;;;26.80;16.58;97688.19;5063280;28;20043;-83
2021/05/06 05:29:55;;;;;;;0.22;0.20;;;;;;;27.27;16.25;97680.25;5065101;28;20021;-84
2021/05/06 05:32:22;;;;;;;0.43;0.20;;;;;;;27.10;15.76;97676.88;5068913;28;20064;-84
2021/05/06 05:34:57;;;;;;;0.40;0.20;;;;;;;25.53;17.81;97690.00;5066652;28;20028;-84
2021/05/06 05:37:25;;;;;;;0.47;0.30;;;;;;;26.61;16.71;97671.16;5066202;28;20458;-88
2021/05/06 05:42:30;;;;;;;0.20;0.20;;;;;;;27.25;16.20;97677.91;5069363;28;20398;-85
2021/05/06 05:48:18;;;;;;;0.28;0.25;;;;;;;27.31;15.46;97675.22;5053263;28;20040;-85
2021/05/06 05:55:56;;;;;;;1.00;0.30;;;;;;;24.78;16.89;97669.13;5054391;28;20163;-84
2021/05/06 05:58:22;;;;;;;0.35;0.30;;;;;;;25.52;16.86;97675.16;5053877;28;20497;-85
2021/05/06 06:00:48;;;;;;;0.43;0.30;;;;;;;25.77;16.38;97674.28;5069991;28;20553;-84
2021/05/06 06:03:14;;;;;;;1.95;0.40;;;;;;;26.98;15.73;97677.78;5071978;28;20028;-84
2021/05/06 06:05:40;;;;;;;0.40;0.40;;;;;;;26.04;15.57;97658.41;5073365;28;20110;-84
2021/05/06 06:08:06;;;;;;;2.60;0.40;;;;;;;25.87;17.10;97668.28;5062622;28;20116;-85
2021/05/06 06:10:35;;;;;;;0.28;0.28;;;;;;;26.16;16.40;97667.28;5053411;28;20036;-85
2021/05/06 06:13:01;;;;;;;2.08;0.40;;;;;;;26.43;16.38;97667.47;5053925;28;20052;-85
2021/05/06 06:18:22;;;;;;;2.58;0.35;;;;;;;23.42;18.33;97668.97;5073552;28;20043;-85
2021/05/06 06:20:55;;;;;;;0.20;0.20;;;;;;;22.57;18.72;97677.34;5072272;28;20021;-85
2021/05/06 06:23:22;;;;;;;0.73;0.57;;;;;;;22.22;20.48;97686.47;5062179;28;20025;-85
2021/05/06 06:25:48;;;;;;;0.50;0.38;;;;;;;22.33;19.14;97673.09;5073304;28;20025;-85
2021/05/06 06:28:14;;;;;;;0.20;0.20;;;;;;;22.53;19.63;97695.41;5072264;28;20074;-85
2021/05/06 06:30:41;;;;;;;1.48;0.30;;;;;;;22.01;19.21;97690.50;5053050;28;20040;-85
2021/05/06 06:33:07;;;;;;;1.48;0.52;;;;;;;21.90;19.16;97677.94;5053126;28;20055;-85
2021/05/06 06:35:34;;;;;;;0.75;0.50;;;;;;;22.15;20.22;97680.28;5054118;28;20379;-85
2021/05/06 06:38:00;;;;;;;0.30;0.28;;;;;;;21.86;20.00;97668.84;5057872;28;20033;-84
2021/05/06 06:40:26;;;;;;;0.85;0.30;;;;;;;22.28;19.50;97670.00;5053085;28;20038;-85
2021/05/06 06:42:52;;;;;;;0.65;0.30;;;;;;;24.38;18.06;97681.94;5053700;28;20375;-85
2021/05/06 06:45:20;;;;;;;0.98;0.40;;;;;;;25.90;16.95;97678.63;5061990;28;20482;-85
2021/05/06 06:47:54;;;;;;;0.30;0.20;;;;;;;26.56;16.33;97668.94;5053274;28;20029;-85
2021/05/06 06:50:21;;;;;;;1.40;0.30;;;;;;;25.29;17.06;97669.88;5052882;28;20041;-85
2021/05/06 06:52:47;;;;;;;0.45;0.30;;;;;;;25.18;17.00;97673.03;5052887;28;20036;-85
2021/05/06 06:55:14;;;;;;;0.25;0.25;;;;;;;24.19;17.70;97678.09;5068815;28;20036;-85
2021/05/06 06:57:40;;;;;;;1.60;0.40;;;;;;;24.83;16.78;97682.63;5072809;28;20033;-85
2021/05/06 07:00:07;;;;;;;4.72;0.40;;;;;;;25.43;16.50;97680.66;5072188;28;20036;-84
2021/05/06 07:02:33;;;;;;;0.82;0.43;;;;;;;25.46;16.14;97676.19;5059891;28;20387;-85
2021/05/06 07:04:59;;;;;;;1.02;0.30;;;;;;;26.89;15.84;97679.78;5061638;28;20033;-85
2021/05/06 07:07:25;;;;;;;0.55;0.20;;;;;;;26.62;15.75;97681.19;5072548;28;20046;-84
2021/05/06 07:09:52;;;;;;;0.52;0.20;;;;;;;27.03;15.72;97682.81;5073426;28;20031;-84
2021/05/06 07:12:18;;;;;;;0.25;0.25;;;;;;;26.01;16.46;97673.41;5072072;28;20036;-84
2021/05/06 07:14:44;;;;;;;0.25;0.20;;;;;;;25.51;16.58;97667.94;5072600;28;20021;-84
2021/05/06 07:17:10;;;;;;;0.20;0.20;;;;;;;26.31;16.90;97671.91;5054454;28;20028;-84
2021/05/06 07:19:36;;;;;;;0.63;0.30;;;;;;;26.70;15.43;97676.06;5074662;28;20120;-84
2021/05/06 07:22:03;;;;;;;0.55;0.30;;;;;;;27.60;14.89;97675.66;5076162;28;20037;-84
2021/05/06 07:24:31;;;;;;;1.17;0.40;;;;;;;27.69;15.01;97674.88;5076891;28;20536;-84
2021/05/06 07:26:58;;;;;;;0.20;0.20;;;;;;;27.81;15.06;97680.38;5076760;28;20024;-84
2021/05/06 07:29:24;;;;;;;0.40;0.30;;;;;;;28.24;14.36;97667.22;5074463;28;20517;-84
2021/05/06 07:31:51;;;;;;;1.15;0.30;;;;;;;27.82;14.56;97667.81;5074724;28;20040;-84
2021/05/06 07:34:17;;;;;;;3.35;0.32;;;;;;;28.08;15.03;97666.28;5074820;28;20013;-84
2021/05/06 07:36:43;;;;;;;0.77;0.25;;;;;;;27.88;14.45;97671.59;5069832;28;20179;-84
2021/05/06 07:39:13;;;;;;;0.57;0.20;;;;;;;28.25;14.43;97668.78;5072821;28;20044;-84
2021/05/06 07:41:39;;;;;;;2.05;0.32;;;;;;;28.17;14.82;97676.03;5074540;28;20048;-85
2021/05/06 07:44:06;;;;;;;1.45;0.30;;;;;;;27.65;14.67;97674.25;5072396;28;20059;-84
2021/05/06 07:46:32;;;;;;;0.30;0.20;;;;;;;28.54;14.04;97671.88;5055076;28;20036;-84
2021/05/06 07:48:58;;;;;;;0.38;0.20;;;;;;;27.95;14.22;97671.28;5074436;28;20063;-84
2021/05/06 07:51:24;;;;;;;0.40;0.28;;;;;;;28.75;14.69;97662.44;5069187;28;20094;-85
2021/05/06 07:53:52;;;;;;;0.47;0.30;;;;;;;28.82;13.93;97652.84;5067982;28;20444;-84
2021/05/06 07:56:19;;;;;;;0.85;0.20;;;;;;;28.91;13.52;97647.16;5055422;28;20070;-84
2021/05/06 07:58:45;;;;;;;0.95;0.30;;;;;;;29.38;13.82;97652.91;5071358;28;20482;-84
2021/05/06 08:01:11;;;;;;;0.35;0.25;;;;;;;29.78;13.79;97644.03;5074074;28;20409;-84
2021/05/06 08:03:38;;;;;;;0.95;0.20;;;;;;;29.09;13.51;97650.69;5071943;28;20035;-84
2021/05/06 08:06:04;;;;;;;0.35;0.20;;;;;;;28.64;14.68;97656.50;5074775;28;20036;-84
2021/05/06 08:08:31;;;;;;;0.60;0.40;;;;;;;26.84;14.62;97669.13;5073820;28;20044;-84
2021/05/06 08:10:58;;;;;;;0.32;0.20;;;;;;;27.25;14.72;97668.66;5072860;28;20035;-84
2021/05/06 08:13:26;;;;;;;0.20;0.20;;;;;;;27.68;14.58;97659.22;5074434;28;20082;-84
2021/05/06 08:15:53;;;;;;;0.30;0.20;;;;;;;27.80;14.31;97650.59;5073348;28;20044;-85
2021/05/06 08:18:20;;;;;;;1.27;0.30;;;;;;;28.48;14.13;97648.34;5072533;28;20502;-84
2021/05/06 08:20:46;;;;;;;0.55;0.30;;;;;;;26.94;14.31;97663.06;5070128;28;20397;-84
2021/05/06 08:23:13;;;;;;;0.70;0.28;;;;;;;25.82;15.71;97657.59;5075125;28;20103;-84
2021/05/06 08:25:40;;;;;;;0.38;0.32;;;;;;;25.86;15.34;97663.88;5075491;28;20051;-84
2021/05/06 08:28:07;;;;;;;0.30;0.30;;;;;;;25.68;15.78;97652.50;5055057;28;20028;-85
2021/05/06 08:30:34;;;;;;;0.85;0.30;;;;;;;24.23;16.95;97641.50;5075808;28;20024;-85
2021/05/06 08:33:01;;;;;;;0.68;0.52;;;;;;;26.05;15.70;97662.78;5073909;28;20028;-84
2021/05/06 08:35:27;;;;;;;0.40;0.28;;;;;;;27.19;14.94;97659.25;5073238;28;20124;-84
2021/05/06 08:37:53;;;;;;;0.82;0.20;;;;;;;27.71;14.71;97670.31;5060985;28;20430;-84
2021/05/06 08:40:20;;;;;;;0.40;0.20;;;;;;;27.23;14.25;97671.16;5074567;28;20037;-84
2021/05/06 08:42:50;;;;;;;0.40;0.38;;;;;;;26.90;13.64;97676.50;5075148;28;20043;-84
2021/05/06 08:45:16;;;;;;;0.63;0.30;;;;;;;27.72;14.12;97666.28;5068588;28;20036;-83
2021/05/06 08:47:45;;;;;;;0.80;0.30;;;;;;;27.84;14.04;97662.50;5074593;28;20033;-84
2021/05/06 08:50:16;;;;;;;1.10;0.30;;;;;;;27.20;14.25;97657.97;5049146;28;20045;-84
2021/05/06 08:52:43;;;;;;;0.85;0.25;;;;;;;27.18;14.02;97666.13;5061585;28;20044;-84
2021/05/06 08:55:09;;;;;;;0.10;0.10;;;;;;;26.81;14.84;97665.19;5073572;28;20555;-84
2021/05/06 08:57:36;;;;;;;0.73;0.20;;;;;;;26.79;14.49;97666.91;5074374;28;20037;-84
2021/05/06 09:00:02;;;;;;;1.10;0.20;;;;;;;26.36;14.94;97659.28;5073748;28;20033;-84
2021/05/06 09:02:28;;;;;;;0.70;0.20;;;;;;;26.90;14.82;97664.44;5074038;28;20482;-84
2021/05/06 09:04:54;;;;;;;0.90;0.20;;;;;;;27.53;14.28;97659.03;5074643;28;20035;-85
2021/05/06 09:07:21;;;;;;;0.45;0.22;;;;;;;27.74;14.30;97666.56;5074711;28;20045;-85
2021/05/06 09:09:50;;;;;;;0.20;0.20;;;;;;;27.00;14.34;97657.59;5072680;28;20047;-85
2021/05/06 09:12:17;;;;;;;0.47;0.22;;;;;;;25.75;15.30;97657.88;5074791;28;20024;-87
2021/05/06 09:14:51;;;;;;;1.17;0.20;;;;;;;27.01;14.52;97653.53;5074091;28;20499;-84
2021/05/06 09:17:33;;;;;;;0.73;0.20;;;;;;;28.02;13.43;97650.47;5073794;28;20037;-85
2021/05/06 09:20:11;;;;;;;0.40;0.20;;;;;;;28.24;13.20;97644.66;5060556;28;20037;-85
2021/05/06 09:22:44;;;;;;;1.33;0.30;;;;;;;28.94;13.18;97649.78;5074600;28;20056;-85
2021/05/06 09:25:29;;;;;;;0.95;0.10;;;;;;;28.81;13.31;97649.22;5074105;28;20036;-85
2021/05/06 09:28:14;;;;;;;2.30;0.38;;;;;;;27.58;13.51;97647.13;5069471;28;20036;-86
2021/05/06 09:30:59;;;;;;;0.32;0.30;;;;;;;27.36;13.31;97640.78;5073723;28;20037;-86
2021/05/06 09:33:31;;;;;;;0.43;0.20;;;;;;;27.88;13.93;97634.13;5056201;28;20032;-85
2021/05/06 09:36:07;;;;;;;0.85;0.28;;;;;;;27.85;14.16;97643.53;5067669;28;20040;-85
2021/05/06 09:38:38;;;;;;;0.52;0.20;;;;;;;28.49;13.22;97642.25;5053655;28;20088;-85
2021/05/06 09:41:06;;;;;;;0.55;0.20;;;;;;;28.12;13.12;97651.25;5063979;28;20029;-85
2021/05/06 09:43:43;;;;;;;0.30;0.20;;;;;;;28.59;13.46;97643.03;5070166;28;20063;-85
2021/05/06 09:46:56;;;;;;;0.98;0.10;;;;;;;28.97;12.75;97628.25;5061880;28;20033;-85
2021/05/06 09:49:23;;;;;;;0.30;0.20;;;;;;;29.49;13.10;97630.53;5052236;28;20080;-84
2021/05/06 09:51:57;;;;;;;2.03;0.30;;;;;;;29.69;13.18;97627.06;5069401;28;20064;-85
2021/05/06 09:54:27;;;;;;;0.50;0.50;;;;;;;29.48;13.44;97637.44;5072255;28;20028;-85
2021/05/06 09:57:01;;;;;;;0.35;0.15;;;;;;;29.73;12.72;97628.47;5073528;28;20064;-84
2021/05/06 09:59:29;;;;;;;0.98;0.10;;;;;;;29.20;13.16;97631.16;5073963;28;20107;-85
2021/05/06 10:02:18;;;;;;;0.40;0.25;;;;;;;29.03;12.65;97629.19;5072042;28;20394;-85
2021/05/06 10:04:47;;;;;;;1.27;0.10;;;;;;;28.15;12.45;97634.13;5073540;28;20392;-84
2021/05/06 10:07:16;;;;;;;0.10;0.10;;;;;;;27.76;14.06;97632.25;5073254;28;20029;-85
2021/05/06 10:09:57;;;;;;;1.27;0.10;;;;;;;28.64;13.65;97625.41;5061904;28;20116;-85
2021/05/06 10:12:25;;;;;;;0.10;0.10;;;;;;;28.25;13.16;97632.09;5039953;28;20135;-85
2021/05/06 10:14:52;;;;;;;0.22;0.10;;;;;;;28.63;13.97;97629.50;5061656;28;20040;-85
2021/05/06 10:17:20;;;;;;;0.30;0.15;;;;;;;27.36;14.34;97638.75;5072419;28;20044;-84
2021/05/06 10:19:46;;;;;;;0.63;0.25;;;;;;;28.32;13.92;97637.41;5071805;28;20111;-84
2021/05/06 10:22:14;;;;;;;1.23;0.15;;;;;;;28.19;13.58;97640.41;5068728;28;20056;-84
2021/05/06 10:24:46;;;;;;;0.20;0.20;;;;;;;29.43;13.96;97643.75;5056835;28;20037;-84
2021/05/06 10:27:16;;;;;;;1.90;0.30;;;;;;;28.81;13.52;97646.41;5053341;28;20040;-84
2021/05/06 10:29:42;;;;;;;0.32;0.30;;;;;;;28.87;13.67;97657.84;5053180;28;20064;-85
2021/05/06 10:32:10;;;;;;;0.30;0.20;;;;;;;29.39;12.92;97658.09;5068666;28;20064;-84
2021/05/06 10:34:37;;;;;;;0.80;0.20;;;;;;;29.31;12.47;97656.09;5072510;28;20033;-84
2021/05/06 10:37:05;;;;;;;0.60;0.20;;;;;;;28.95;13.42;97656.22;5070031;28;20040;-84
2021/05/06 10:39:41;;;;;;;1.65;0.50;;;;;;;29.51;13.12;97653.44;5069421;28;20036;-84
2021/05/06 10:42:28;;;;;;;0.70;0.35;;;;;;;29.80;12.38;97656.41;5072741;28;20093;-84
2021/05/06 10:44:56;;;;;;;0.55;0.20;;;;;;;30.37;12.93;97653.41;5059463;28;20485;-83
2021/05/06 10:47:48;;;;;;;1.17;0.28;;;;;;;30.26;12.91;97653.97;5075103;28;20040;-83
2021/05/06 10:50:32;;;;;;;0.70;0.20;;;;;;;29.50;12.84;97660.34;5053289;28;20036;-83
2021/05/06 10:52:58;;;;;;;0.85;0.30;;;;;;;29.43;12.70;97664.34;5057411;28;20078;-84
2021/05/06 10:55:53;;;;;;;0.30;0.20;;;;;;;29.72;12.85;97668.56;5067246;28;20486;-83
2021/05/06 10:58:30;;;;;;;0.55;0.10;;;;;;;29.48;12.54;97662.88;5066262;28;20502;-84
2021/05/06 11:01:11;;;;;;;0.65;0.30;;;;;;;29.10;12.92;97657.88;5077352;28;20028;-83
2021/05/06 11:03:37;;;;;;;0.75;0.20;;;;;;;28.68;13.33;97646.59;5077007;28;20394;-84
2021/05/06 11:06:05;;;;;;;0.47;0.20;;;;;;;29.81;13.67;97657.19;5076251;28;20076;-84
2021/05/06 11:08:34;;;;;;;0.90;0.40;;;;;;;30.64;13.19;97656.75;5072577;28;20044;-83
2021/05/06 11:11:01;;;;;;;0.43;0.25;;;;;;;30.70;12.96;97654.81;5056704;28;20033;-83
2021/05/06 11:13:29;;;;;;;0.30;0.28;;;;;;;29.56;13.14;97652.00;5057363;28;20048;-84
2021/05/06 11:16:17;;;;;;;0.63;0.30;;;;;;;29.94;11.78;97640.75;5061925;28;20116;-84
2021/05/06 11:18:48;;;;;;;0.60;0.40;;;;;;;30.97;12.47;97645.22;5064200;28;20080;-83
2021/05/06 11:21:36;;;;;;;1.95;0.57;;;;;;;30.47;12.49;97650.03;5056669;28;20029;-83
2021/05/06 11:24:17;;;;;;;0.52;0.30;;;;;;;29.66;12.76;97640.16;5056900;28;20060;-83
2021/05/06 11:27:16;;;;;;;0.40;0.30;;;;;;;30.04;12.58;97628.06;5068305;28;20048;-83
2021/05/06 11:29:43;;;;;;;0.30;0.20;;;;;;;29.91;13.32;97628.34;5075892;28;20482;-83
2021/05/06 11:32:39;;;;;;;0.50;0.30;;;;;;;29.61;13.25;97625.88;5071068;28;20028;-83
2021/05/06 11:35:05;;;;;;;2.50;0.40;;;;;;;30.57;12.60;97623.13;5059533;28;20041;-83
2021/05/06 11:37:32;;;;;;;0.77;0.40;;;;;;;30.77;11.91;97611.09;5075914;28;20040;-83
2021/05/06 11:40:12;;;;;;;0.60;0.40;;;;;;;29.86;12.95;97616.91;5076241;28;20045;-82
2021/05/06 11:42:42;;;;;;;0.30;0.30;;;;;;;30.40;12.40;97615.63;5072705;28;20025;-83
2021/05/06 11:45:10;;;;;;;1.38;0.52;;;;;;;30.54;12.01;97618.47;5056306;28;20053;-83
2021/05/06 11:47:36;;;;;;;0.45;0.30;;;;;;;30.22;12.39;97607.28;5071455;28;20119;-83
2021/05/06 11:50:35;;;;;;;0.77;0.38;;;;;;;30.21;12.67;97600.84;5037791;28;20033;-83
2021/05/06 11:53:02;;;;;;;1.23;0.20;;;;;;;29.88;12.57;97608.69;5025918;28;20051;-83
2021/05/06 11:55:31;;;;;;;0.85;0.22;;;;;;;30.46;13.20;97613.66;5075721;28;20504;-83
2021/05/06 11:57:57;;;;;;;0.40;0.20;;;;;;;29.99;12.80;97618.19;5074240;28;20038;-84
2021/05/06 12:00:28;;;;;;;0.43;0.30;;;;;;;29.98;12.84;97616.63;5074047;28;20509;-83
2021/05/06 12:03:09;;;;;;;0.30;0.30;;;;;;;30.24;12.56;97625.38;5067885;28;20047;-84
2021/05/06 12:05:49;;;;;;;0.50;0.40;;;;;;;30.06;12.59;97631.97;5069823;28;20107;-84
2021/05/06 12:08:16;;;;;;;0.85;0.50;;;;;;;29.67;13.09;97638.09;5074373;28;20029;-84
2021/05/06 12:10:42;;;;;;;0.32;0.25;;;;;;;29.76;13.04;97627.50;5073159;28;20062;-84
2021/05/06 12:13:09;;;;;;;0.40;0.20;;;;;;;29.13;14.49;97622.22;5075010;28;20040;-84
2021/05/06 12:15:36;;;;;;;0.30;0.15;;;;;;;29.67;14.59;97621.09;5074865;28;20040;-83
2021/05/06 12:18:25;;;;;;;0.30;0.20;;;;;;;30.01;14.84;97615.66;5074112;28;20516;-84
2021/05/06 12:20:56;;;;;;;0.30;0.30;;;;;;;30.34;14.99;97611.94;5070013;28;20028;-84
2021/05/06 12:23:23;;;;;;;0.40;0.40;;;;;;;30.73;14.32;97610.53;5075771;28;20058;-83
2021/05/06 12:25:50;;;;;;;1.05;0.40;;;;;;;30.32;14.16;97608.75;5073291;28;20024;-84
2021/05/06 12:28:17;;;;;;;0.20;0.20;;;;;;;30.95;14.19;97595.97;5064408;28;20025;-84
2021/05/06 12:30:43;;;;;;;0.40;0.20;;;;;;;31.25;13.66;97598.19;5075348;28;20482;-84
2021/05/06 12:33:10;;;;;;;0.65;0.30;;;;;;;32.00;13.89;97601.00;5074311;28;20029;-84
2021/05/06 12:35:52;;;;;;;1.58;0.20;;;;;;;31.63;12.71;97587.88;5074329;28;20037;-84
2021/05/06 12:38:18;;;;;;;0.30;0.30;;;;;;;31.50;13.06;97598.81;5074352;28;20178;-84
2021/05/06 12:40:45;;;;;;;0.20;0.20;;;;;;;32.27;13.31;97587.56;5056705;28;20033;-85
2021/05/06 12:43:29;;;;;;;0.32;0.28;;;;;;;32.19;12.51;97584.41;5075186;28;20024;-84
2021/05/06 12:46:10;;;;;;;0.60;0.40;;;;;;;30.83;13.30;97571.50;5074460;28;20067;-84
2021/05/06 12:48:37;;;;;;;0.68;0.30;;;;;;;31.10;13.06;97574.00;5057073;28;20089;-84
2021/05/06 12:51:05;;;;;;;1.00;0.32;;;;;;;31.46;13.15;97570.63;5062344;28;20027;-84
2021/05/06 12:53:31;;;;;;;1.02;0.40;;;;;;;31.77;13.21;97570.75;5067603;28;20043;-83
2021/05/06 12:55:58;;;;;;;0.57;0.25;;;;;;;32.10;12.35;97559.00;5065307;28;20071;-84
2021/05/06 12:58:29;;;;;;;0.40;0.30;;;;;;;32.04;12.30;97564.63;5066293;28;20048;-87
2021/05/06 13:00:55;;;;;;;0.32;0.28;;;;;;;31.38;11.79;97558.13;5060384;28;20028;-86
2021/05/06 13:03:57;;;;;;;1.10;0.40;;;;;;;31.74;12.95;97571.00;5063833;28;20090;-82
2021/05/06 13:06:29;;;;;;;1.92;0.85;;;;;;;31.41;12.68;97549.38;5065464;28;20043;-86
2021/05/06 13:08:58;;;;;;;0.43;0.30;;;;;;;31.30;12.63;97551.31;5065125;28;20025;-86
2021/05/06 13:11:24;;;;;;;0.50;0.40;;;;;;;31.36;13.60;97564.31;5062676;28;20115;-85
2021/05/06 13:13:52;;;;;;;0.20;0.20;;;;;;;31.37;12.40;97548.84;5062741;28;20494;-84
2021/05/06 13:16:48;;;;;;;0.95;0.40;;;;;;;29.89;13.21;97559.31;5067690;28;20025;-83
2021/05/06 13:19:24;;;;;;;0.90;0.20;;;;;;;30.37;12.62;97542.94;5068267;28;20040;-84
2021/05/06 13:22:03;;;;;;;2.05;0.20;;;;;;;30.56;12.32;97547.13;5062040;28;20033;-85
2021/05/06 13:24:43;;;;;;;0.65;0.25;;;;;;;29.66;12.41;97543.16;5072466;28;20037;-84
2021/05/06 13:27:21;;;;;;;1.27;0.30;;;;;;;28.58;14.06;97557.47;5067979;28;21286;-84
2021/05/06 13:29:57;;;;;;;0.15;0.15;;;;;;;29.76;13.35;97547.47;5071860;28;20032;-83
2021/05/06 13:32:37;;;;;;;0.28;0.20;;;;;;;29.54;13.59;97544.19;5064996;28;20041;-83
2021/05/06 13:35:14;;;;;;;1.90;0.30;;;;;;;29.83;12.93;97538.59;5069701;28;20032;-84
2021/05/06 13:37:44;;;;;;;0.40;0.35;;;;;;;29.42;12.99;97524.19;5071345;28;20127;-84
2021/05/06 13:40:11;;;;;;;0.50;0.30;;;;;;;29.61;12.90;97541.78;5073403;28;20058;-84
2021/05/06 13:42:38;;;;;;;1.00;0.20;;;;;;;27.84;14.00;97552.44;5072800;28;20047;-83
2021/05/06 13:45:07;;;;;;;0.77;0.20;;;;;;;28.99;14.09;97540.94;5069849;28;20466;-87
2021/05/06 13:47:33;;;;;;;0.20;0.10;;;;;;;29.05;13.79;97534.16;5063655;28;20036;-89
2021/05/06 13:49:59;;;;;;;0.63;0.40;;;;;;;28.36;13.10;97519.41;5070237;28;20487;-85
2021/05/06 13:52:26;;;;;;;0.28;0.20;;;;;;;27.89;13.61;97511.56;5069448;28;20493;-85
2021/05/06 13:54:54;;;;;;;0.25;0.25;;;;;;;28.77;13.91;97518.63;5067452;28;20079;-85
2021/05/06 13:57:20;;;;;;;0.20;0.13;;;;;;;30.06;12.47;97509.44;5065977;28;20040;-86
2021/05/06 13:59:46;;;;;;;0.63;0.17;;;;;;;31.31;11.87;97501.81;5065957;28;20491;-85
2021/05/06 14:02:15;;;;;;;0.25;0.20;;;;;;;30.20;12.31;97505.03;5065083;28;20558;-84
2021/05/06 14:04:42;;;;;;;0.85;0.20;;;;;;;29.71;12.31;97508.53;5069614;28;20032;-81
2021/05/06 14:07:09;;;;;;;0.40;0.20;;;;;;;30.48;12.18;97515.56;5069789;28;20033;-81
2021/05/06 14:09:35;;;;;;;0.70;0.30;;;;;;;30.18;12.17;97510.44;5069432;28;20154;-82
2021/05/06 14:12:01;;;;;;;0.73;0.20;;;;;;;30.09;12.33;97508.47;5044968;28;20087;-86
2021/05/06 14:14:27;;;;;;;0.30;0.13;;;;;;;30.80;12.07;97510.91;5070973;28;20032;-86
2021/05/06 14:16:53;;;;;;;0.20;0.10;;;;;;;31.42;11.74;97508.44;5050203;28;20163;-86
2021/05/06 14:19:20;;;;;;;0.93;0.10;;;;;;;32.20;11.34;97497.13;5069191;28;20032;-86
2021/05/06 14:21:48;;;;;;;0.95;0.35;;;;;;;31.64;12.36;97484.41;5066577;28;20063;-86
2021/05/06 14:24:15;;;;;;;2.72;0.20;;;;;;;31.91;11.26;97489.59;5058265;28;20490;-87
2021/05/06 14:26:44;;;;;;;0.15;0.13;;;;;;;31.60;11.89;97493.13;5070046;28;20070;-87
2021/05/06 14:29:10;;;;;;;0.10;0.10;;;;;;;31.42;11.52;97496.25;5071712;28;20051;-90
2021/05/06 14:31:36;;;;;;;0.30;0.15;;;;;;;30.32;11.96;97501.88;5051624;28;20095;-90
2021/05/06 14:34:02;;;;;;;0.20;0.13;;;;;;;30.13;11.99;97511.88;5069865;28;20023;-90
2021/05/06 14:36:28;;;;;;;0.43;0.28;;;;;;;30.42;12.61;97514.72;5074610;28;20076;-90
2021/05/06 14:38:56;;;;;;;0.65;0.30;;;;;;;28.54;13.20;97517.28;5071237;28;20043;-88
2021/05/06 14:41:22;;;;;;;1.35;0.30;;;;;;;27.39;14.23;97515.84;5066015;28;20041;-87
2021/05/06 14:43:48;;;;;;;0.63;0.30;;;;;;;26.84;15.34;97522.66;5071218;28;20037;-88
2021/05/06 14:46:15;;;;;;;0.68;0.17;;;;;;;26.44;16.27;97514.97;5071735;28;20111;-88
2021/05/06 14:48:41;;;;;;;2.70;0.30;;;;;;;27.32;15.61;97508.44;5073035;28;20044;-87
2021/05/06 14:51:07;;;;;;;1.13;0.30;;;;;;;27.20;14.89;97503.75;5074210;28;20048;-88
2021/05/06 14:53:33;;;;;;;0.43;0.20;;;;;;;28.06;14.75;97507.13;5071763;28;20075;-88
2021/05/06 14:55:59;;;;;;;0.30;0.30;;;;;;;27.74;15.16;97510.63;5065910;28;20025;-85
2021/05/06 14:58:29;;;;;;;1.10;0.30;;;;;;;27.28;15.58;97496.53;5067947;28;20543;-86
2021/05/06 15:00:56;;;;;;;2.55;0.20;;;;;;;29.07;14.55;97497.72;5066029;28;20039;-85